createdAt,value
2023-05-14T00:00:58.642Z,0.00
2023-05-14T00:01:58.714Z,0.00
2023-05-14T00:02:58.794Z,0.00
2023-05-14T00:03:58.821Z,0.00
2023-05-14T00:04:58.604Z,0.00
2023-05-14T00:05:58.568Z,0.00
2023-05-14T00:06:58.560Z,0.00
2023-05-14T00:07:58.551Z,0.00
2023-05-14T00:08:58.536Z,0.00
2023-05-14T00:09:58.522Z,0.00
2023-05-14T00:10:58.507Z,0.00
2023-05-14T00:11:58.495Z,0.00
2023-05-14T00:12:58.481Z,0.00
2023-05-14T00:13:58.474Z,0.00
2023-05-14T00:14:58.458Z,0.00
2023-05-14T00:15:58.510Z,0.00
2023-05-14T00:16:58.428Z,0.00
2023-05-14T00:17:58.516Z,0.00
2023-05-14T00:18:58.454Z,0.00
2023-05-14T00:19:58.395Z,0.00
2023-05-14T00:20:58.482Z,0.00
2023-05-14T00:21:58.427Z,0.00
2023-05-14T00:22:58.384Z,0.00
2023-05-14T00:23:58.429Z,0.00
2023-05-14T00:24:58.388Z,0.00
2023-05-14T00:25:58.428Z,0.00
2023-05-14T00:26:58.404Z,0.00
2023-05-14T00:27:58.291Z,0.00
2023-05-14T00:28:58.278Z,0.00
2023-05-14T00:29:58.263Z,0.00
2023-05-14T00:30:58.280Z,0.00
2023-05-14T00:31:58.279Z,0.00
2023-05-14T00:32:58.309Z,0.00
2023-05-14T00:33:58.212Z,0.00
2023-05-14T00:34:58.199Z,0.00
2023-05-14T00:35:58.183Z,0.00
2023-05-14T00:36:58.170Z,0.00
2023-05-14T00:37:58.158Z,0.00
2023-05-14T00:38:58.146Z,0.00
2023-05-14T00:39:58.131Z,0.00
2023-05-14T00:40:58.146Z,0.00
2023-05-14T00:41:58.108Z,0.00
2023-05-14T00:42:58.101Z,0.00
2023-05-14T00:43:58.082Z,0.00
2023-05-14T00:44:58.071Z,0.00
2023-05-14T00:45:58.057Z,0.00
2023-05-14T00:46:58.062Z,0.00
2023-05-14T00:47:58.110Z,0.00
2023-05-14T00:48:58.021Z,0.00
2023-05-14T00:49:58.008Z,0.00
2023-05-14T00:50:58.001Z,0.00
2023-05-14T00:51:57.990Z,0.00
2023-05-14T00:52:57.972Z,0.00
2023-05-14T00:53:57.959Z,0.00
2023-05-14T00:54:57.949Z,0.00
2023-05-14T00:55:57.935Z,0.00
2023-05-14T00:56:57.922Z,0.00
2023-05-14T00:57:57.911Z,0.00
2023-05-14T00:58:57.897Z,0.00
2023-05-14T00:59:57.884Z,0.00
2023-05-14T01:00:57.909Z,0.00
2023-05-14T01:01:57.856Z,0.00
2023-05-14T01:02:57.950Z,0.00
2023-05-14T01:03:58.177Z,0.00
2023-05-14T01:04:57.820Z,0.00
2023-05-14T01:05:57.813Z,0.00
2023-05-14T01:06:57.794Z,0.00
2023-05-14T01:07:57.779Z,0.00
2023-05-14T01:08:57.774Z,0.00
2023-05-14T01:09:57.755Z,0.00
2023-05-14T01:10:57.743Z,0.00
2023-05-14T01:11:57.735Z,0.00
2023-05-14T01:12:57.720Z,0.00
2023-05-14T01:13:57.705Z,0.00
2023-05-14T01:14:57.696Z,0.00
2023-05-14T01:15:57.711Z,0.00
2023-05-14T01:16:57.714Z,0.00
2023-05-14T01:17:57.666Z,0.00
2023-05-14T01:18:57.725Z,0.00
2023-05-14T01:19:57.678Z,0.00
2023-05-14T01:20:57.611Z,0.00
2023-05-14T01:21:57.600Z,0.00
2023-05-14T01:22:57.582Z,0.00
2023-05-14T01:23:57.574Z,0.00
2023-05-14T01:24:57.559Z,0.00
2023-05-14T01:25:57.545Z,0.00
2023-05-14T01:26:57.548Z,0.00
2023-05-14T01:27:57.518Z,0.00
2023-05-14T01:28:57.503Z,0.00
2023-05-14T01:29:57.492Z,0.00
2023-05-14T01:30:57.477Z,0.00
2023-05-14T01:31:57.510Z,0.00
2023-05-14T01:32:57.480Z,0.00
2023-05-14T01:33:57.436Z,0.00
2023-05-14T01:34:57.424Z,0.00
2023-05-14T01:35:57.448Z,0.00
2023-05-14T01:36:57.404Z,0.00
2023-05-14T01:37:57.383Z,0.00
2023-05-14T01:38:57.369Z,0.00
2023-05-14T01:39:57.358Z,0.00
2023-05-14T01:40:57.352Z,0.00
2023-05-14T01:41:57.352Z,0.00
2023-05-14T01:42:57.366Z,0.00
2023-05-14T01:43:57.307Z,0.00
2023-05-14T01:44:57.294Z,0.00
2023-05-14T01:45:57.288Z,0.00
2023-05-14T01:46:57.257Z,0.00
2023-05-14T01:47:57.303Z,0.00
2023-05-14T01:48:57.235Z,0.00
2023-05-14T01:49:57.222Z,0.00
2023-05-14T01:50:57.232Z,0.00
2023-05-14T01:51:57.223Z,0.00
2023-05-14T01:52:57.203Z,0.00
2023-05-14T01:53:57.171Z,0.00
2023-05-14T01:54:57.156Z,0.00
2023-05-14T01:55:57.145Z,0.00
2023-05-14T01:56:57.138Z,0.00
2023-05-14T01:57:57.118Z,0.00
2023-05-14T01:58:57.098Z,0.00
2023-05-14T01:59:57.122Z,0.00
2023-05-14T02:00:57.073Z,0.00
2023-05-14T02:01:57.166Z,0.00
2023-05-14T02:02:57.089Z,0.00
2023-05-14T02:03:57.105Z,0.00
2023-05-14T02:04:57.021Z,0.00
2023-05-14T02:05:57.011Z,0.00
2023-05-14T02:06:56.996Z,0.00
2023-05-14T02:07:57.011Z,0.00
2023-05-14T02:08:56.976Z,0.00
2023-05-14T02:09:56.957Z,0.00
2023-05-14T02:10:56.942Z,0.00
2023-05-14T02:11:56.938Z,0.00
2023-05-14T02:12:56.918Z,0.00
2023-05-14T02:14:56.889Z,0.00
2023-05-14T02:15:56.913Z,0.00
2023-05-14T02:16:56.865Z,0.00
2023-05-14T02:17:56.889Z,0.00
2023-05-14T02:18:56.874Z,0.00
2023-05-14T02:19:56.831Z,0.00
2023-05-14T02:20:56.819Z,0.00
2023-05-14T02:21:56.803Z,0.00
2023-05-14T02:22:56.815Z,0.00
2023-05-14T02:23:56.804Z,0.00
2023-05-14T02:24:56.765Z,0.00
2023-05-14T02:25:56.760Z,0.00
2023-05-14T02:26:56.735Z,0.00
2023-05-14T02:27:56.718Z,0.00
2023-05-14T02:28:56.714Z,0.00
2023-05-14T02:29:56.701Z,0.00
2023-05-14T02:30:56.682Z,0.00
2023-05-14T02:31:56.998Z,0.00
2023-05-14T02:32:56.705Z,0.00
2023-05-14T02:33:56.643Z,0.00
2023-05-14T02:34:56.646Z,0.00
2023-05-14T02:35:56.623Z,0.00
2023-05-14T02:36:56.603Z,0.00
2023-05-14T02:37:56.601Z,0.00
2023-05-14T02:38:56.583Z,0.00
2023-05-14T02:39:56.612Z,0.00
2023-05-14T02:40:56.552Z,0.00
2023-05-14T02:41:56.537Z,0.00
2023-05-14T02:42:56.532Z,0.00
2023-05-14T02:43:56.511Z,0.00
2023-05-14T02:44:56.500Z,0.00
2023-05-14T02:45:56.488Z,0.00
2023-05-14T02:46:56.483Z,0.00
2023-05-14T02:47:56.554Z,0.00
2023-05-14T02:48:56.453Z,0.00
2023-05-14T02:49:56.432Z,0.00
2023-05-14T02:50:56.422Z,0.00
2023-05-14T02:51:56.405Z,0.00
2023-05-14T02:52:56.389Z,0.00
2023-05-14T02:53:56.374Z,0.00
2023-05-14T02:54:56.374Z,0.00
2023-05-14T02:55:56.381Z,0.00
2023-05-14T02:56:56.337Z,0.00
2023-05-14T02:57:56.327Z,0.00
2023-05-14T02:58:56.321Z,0.00
2023-05-14T03:00:56.312Z,0.00
2023-05-14T03:01:56.283Z,0.00
2023-05-14T03:02:56.380Z,0.00
2023-05-14T03:03:56.244Z,0.00
2023-05-14T03:04:56.232Z,0.00
2023-05-14T03:05:56.229Z,0.00
2023-05-14T03:06:56.204Z,0.00
2023-05-14T03:07:56.193Z,0.00
2023-05-14T03:08:56.177Z,0.00
2023-05-14T03:09:56.166Z,0.00
2023-05-14T03:10:56.152Z,0.00
2023-05-14T03:11:56.166Z,0.00
2023-05-14T03:12:56.150Z,0.00
2023-05-14T03:13:56.116Z,0.00
2023-05-14T03:14:56.102Z,0.00
2023-05-14T03:15:56.088Z,0.00
2023-05-14T03:16:56.099Z,0.00
2023-05-14T03:17:56.085Z,0.00
2023-05-14T03:18:56.128Z,0.00
2023-05-14T03:19:56.039Z,0.00
2023-05-14T03:20:56.018Z,0.00
2023-05-14T03:21:56.006Z,0.00
2023-05-14T03:22:55.995Z,0.00
2023-05-14T03:23:55.992Z,0.00
2023-05-14T03:24:55.968Z,0.00
2023-05-14T03:25:55.959Z,0.00
2023-05-14T03:26:55.934Z,0.00
2023-05-14T03:27:55.952Z,0.00
2023-05-14T03:28:55.930Z,0.00
2023-05-14T03:29:55.897Z,0.00
2023-05-14T03:30:55.906Z,0.00
2023-05-14T03:31:55.876Z,0.00
2023-05-14T03:32:55.917Z,0.00
2023-05-14T03:33:55.846Z,0.00
2023-05-14T03:34:55.830Z,0.00
2023-05-14T03:35:55.823Z,0.00
2023-05-14T03:36:55.807Z,0.00
2023-05-14T03:37:55.791Z,0.00
2023-05-14T03:38:55.775Z,0.00
2023-05-14T03:39:55.762Z,0.00
2023-05-14T03:40:55.755Z,5.62
2023-05-14T03:41:55.741Z,5.62
2023-05-14T03:42:55.728Z,5.62
2023-05-14T03:43:55.740Z,5.62
2023-05-14T03:44:55.709Z,5.62
2023-05-14T03:45:55.687Z,5.62
2023-05-14T03:46:55.672Z,5.62
2023-05-14T03:47:55.698Z,5.62
2023-05-14T03:48:55.683Z,5.62
2023-05-14T03:49:55.631Z,11.25
2023-05-14T03:50:55.621Z,11.25
2023-05-14T03:51:55.603Z,11.25
2023-05-14T03:52:55.590Z,11.25
2023-05-14T03:53:55.581Z,11.25
2023-05-14T03:54:55.571Z,11.25
2023-05-14T03:55:55.550Z,16.87
2023-05-14T03:56:55.540Z,16.87
2023-05-14T03:57:55.550Z,16.87
2023-05-14T03:58:55.517Z,16.87
2023-05-14T03:59:55.524Z,16.87
2023-05-14T04:00:55.484Z,16.87
2023-05-14T04:01:55.477Z,22.50
2023-05-14T04:02:55.501Z,22.50
2023-05-14T04:03:55.643Z,22.50
2023-05-14T04:04:55.509Z,22.50
2023-05-14T04:05:55.416Z,22.50
2023-05-14T04:06:55.405Z,22.50
2023-05-14T04:07:55.399Z,28.12
2023-05-14T04:08:55.399Z,28.12
2023-05-14T04:09:55.368Z,28.12
2023-05-14T04:10:55.356Z,28.12
2023-05-14T04:11:55.344Z,33.75
2023-05-14T04:12:55.330Z,33.75
2023-05-14T04:13:55.314Z,33.75
2023-05-14T04:14:55.303Z,33.75
2023-05-14T04:15:55.338Z,33.75
2023-05-14T04:16:55.279Z,39.37
2023-05-14T04:17:55.309Z,39.37
2023-05-14T04:18:55.310Z,39.37
2023-05-14T04:19:55.244Z,39.37
2023-05-14T04:20:55.222Z,39.37
2023-05-14T04:21:55.210Z,39.37
2023-05-14T04:22:55.201Z,45.00
2023-05-14T04:23:55.182Z,45.00
2023-05-14T04:24:55.173Z,45.00
2023-05-14T04:25:55.159Z,45.00
2023-05-14T04:26:55.142Z,45.00
2023-05-14T04:27:55.137Z,50.62
2023-05-14T04:28:55.114Z,50.62
2023-05-14T04:29:55.107Z,50.62
2023-05-14T04:30:55.089Z,56.25
2023-05-14T04:31:55.116Z,61.87
2023-05-14T04:32:55.123Z,67.50
2023-05-14T04:33:55.050Z,73.12
2023-05-14T04:34:55.033Z,73.12
2023-05-14T04:35:55.024Z,78.75
2023-05-14T04:36:55.012Z,78.75
2023-05-14T04:37:55.000Z,84.37
2023-05-14T04:38:54.978Z,78.75
2023-05-14T04:39:54.965Z,84.37
2023-05-14T04:40:54.959Z,84.37
2023-05-14T04:41:54.948Z,84.37
2023-05-14T04:42:54.939Z,90.00
2023-05-14T04:43:54.913Z,90.00
2023-05-14T04:44:54.897Z,90.00
2023-05-14T04:45:54.913Z,90.00
2023-05-14T04:46:54.870Z,95.62
2023-05-14T04:47:54.912Z,95.62
2023-05-14T04:48:54.851Z,95.62
2023-05-14T04:49:54.836Z,101.25
2023-05-14T04:50:54.834Z,106.87
2023-05-14T04:51:54.806Z,112.50
2023-05-14T04:52:54.791Z,118.12
2023-05-14T04:53:54.784Z,123.75
2023-05-14T04:54:54.766Z,135.00
2023-05-14T04:55:54.754Z,135.00
2023-05-14T04:56:54.741Z,140.62
2023-05-14T04:57:54.727Z,146.25
2023-05-14T04:58:54.717Z,140.62
2023-05-14T04:59:54.704Z,146.25
2023-05-14T05:00:54.721Z,146.25
2023-05-14T05:01:54.678Z,151.87
2023-05-14T05:02:54.694Z,151.87
2023-05-14T05:03:54.732Z,157.50
2023-05-14T05:04:54.639Z,163.12
2023-05-14T05:05:54.634Z,168.75
2023-05-14T05:06:54.618Z,168.75
2023-05-14T05:07:54.610Z,174.37
2023-05-14T05:08:54.585Z,180.00
2023-05-14T05:09:54.578Z,185.62
2023-05-14T05:10:54.563Z,185.62
2023-05-14T05:11:54.553Z,174.37
2023-05-14T05:12:54.568Z,168.75
2023-05-14T05:13:54.527Z,168.75
2023-05-14T05:14:54.514Z,163.12
2023-05-14T05:15:54.523Z,163.12
2023-05-14T05:16:54.502Z,163.12
2023-05-14T05:17:54.498Z,163.12
2023-05-14T05:18:54.558Z,168.75
2023-05-14T05:19:54.478Z,174.37
2023-05-14T05:20:54.437Z,174.37
2023-05-14T05:21:54.423Z,174.37
2023-05-14T05:22:54.413Z,168.75
2023-05-14T05:23:54.403Z,174.37
2023-05-14T05:24:54.417Z,174.37
2023-05-14T05:25:54.374Z,185.62
2023-05-14T05:26:54.375Z,196.87
2023-05-14T05:27:54.348Z,213.75
2023-05-14T05:28:54.340Z,230.62
2023-05-14T05:29:54.321Z,241.87
2023-05-14T05:30:54.343Z,253.12
2023-05-14T05:31:54.355Z,253.12
2023-05-14T05:32:54.339Z,253.12
2023-05-14T05:33:54.277Z,253.12
2023-05-14T05:34:54.257Z,253.12
2023-05-14T05:35:54.269Z,253.12
2023-05-14T05:36:54.227Z,253.12
2023-05-14T05:37:54.215Z,241.87
2023-05-14T05:38:54.204Z,225.00
2023-05-14T05:39:54.201Z,225.00
2023-05-14T05:40:54.179Z,219.37
2023-05-14T05:41:54.172Z,225.00
2023-05-14T05:42:54.172Z,236.25
2023-05-14T05:43:54.140Z,247.50
2023-05-14T05:44:54.124Z,264.37
2023-05-14T05:45:54.113Z,264.37
2023-05-14T05:46:54.170Z,270.00
2023-05-14T05:47:54.111Z,281.25
2023-05-14T05:48:54.071Z,292.50
2023-05-14T05:49:54.078Z,275.62
2023-05-14T05:50:54.045Z,241.87
2023-05-14T05:51:54.058Z,225.00
2023-05-14T05:52:54.016Z,264.37
2023-05-14T05:53:54.005Z,241.87
2023-05-14T05:54:53.993Z,253.12
2023-05-14T05:55:53.979Z,230.62
2023-05-14T05:56:53.989Z,258.75
2023-05-14T05:57:53.974Z,320.62
2023-05-14T05:58:53.956Z,382.50
2023-05-14T05:59:53.942Z,326.25
2023-05-14T06:00:53.922Z,337.50
2023-05-14T06:01:53.924Z,382.50
2023-05-14T06:02:53.993Z,393.75
2023-05-14T06:03:53.880Z,393.75
2023-05-14T06:04:53.903Z,354.37
2023-05-14T06:05:53.918Z,343.12
2023-05-14T06:06:53.854Z,348.75
2023-05-14T06:07:53.871Z,343.12
2023-05-14T06:08:53.812Z,371.25
2023-05-14T06:09:53.800Z,416.25
2023-05-14T06:10:53.785Z,500.62
2023-05-14T06:11:53.773Z,433.12
2023-05-14T06:12:53.760Z,551.25
2023-05-14T06:13:53.758Z,540.00
2023-05-14T06:14:53.736Z,450.00
2023-05-14T06:15:53.717Z,562.50
2023-05-14T06:16:53.792Z,635.62
2023-05-14T06:17:53.751Z,607.50
2023-05-14T06:18:53.737Z,613.12
2023-05-14T06:19:53.676Z,596.25
2023-05-14T06:20:53.671Z,556.87
2023-05-14T06:21:53.663Z,540.00
2023-05-14T06:22:53.639Z,511.87
2023-05-14T06:23:53.648Z,478.12
2023-05-14T06:24:53.626Z,466.87
2023-05-14T06:25:53.600Z,478.12
2023-05-14T06:26:53.581Z,495.00
2023-05-14T06:27:53.566Z,528.75
2023-05-14T06:28:53.558Z,579.37
2023-05-14T06:29:53.557Z,641.25
2023-05-14T06:30:53.529Z,675.00
2023-05-14T06:31:53.582Z,697.50
2023-05-14T06:32:53.563Z,663.75
2023-05-14T06:33:53.491Z,613.12
2023-05-14T06:34:53.475Z,573.75
2023-05-14T06:35:53.461Z,540.00
2023-05-14T06:36:53.457Z,534.37
2023-05-14T06:37:53.441Z,607.50
2023-05-14T06:38:53.423Z,641.25
2023-05-14T06:39:54.377Z,675.00
2023-05-14T06:40:53.396Z,714.37
2023-05-14T06:41:53.379Z,736.87
2023-05-14T06:42:53.368Z,736.87
2023-05-14T06:43:53.365Z,765.00
2023-05-14T06:44:53.344Z,798.75
2023-05-14T06:45:53.333Z,945.00
2023-05-14T06:46:53.325Z,1271.25
2023-05-14T06:47:53.442Z,1220.62
2023-05-14T06:48:53.348Z,1085.62
2023-05-14T06:49:53.276Z,624.37
2023-05-14T06:50:53.268Z,416.25
2023-05-14T06:51:53.251Z,382.50
2023-05-14T06:52:53.240Z,393.75
2023-05-14T06:53:53.224Z,450.00
2023-05-14T06:54:53.214Z,500.62
2023-05-14T06:55:53.233Z,540.00
2023-05-14T06:56:53.189Z,556.87
2023-05-14T06:57:53.182Z,601.87
2023-05-14T06:58:53.169Z,725.62
2023-05-14T06:59:53.147Z,742.50
2023-05-14T07:00:53.134Z,855.00
2023-05-14T07:01:53.193Z,1282.50
2023-05-14T07:02:53.136Z,1231.87
2023-05-14T07:03:53.102Z,1248.75
2023-05-14T07:04:53.083Z,1327.50
2023-05-14T07:05:53.073Z,1051.87
2023-05-14T07:06:53.060Z,1175.62
2023-05-14T07:07:53.045Z,1265.62
2023-05-14T07:08:53.030Z,978.75
2023-05-14T07:09:53.026Z,1006.87
2023-05-14T07:10:53.012Z,1226.25
2023-05-14T07:11:53.018Z,1141.87
2023-05-14T07:12:52.979Z,1305.00
2023-05-14T07:13:52.972Z,1209.37
2023-05-14T07:14:52.958Z,1220.62
2023-05-14T07:15:52.941Z,1327.50
2023-05-14T07:16:52.962Z,1113.75
2023-05-14T07:17:52.983Z,1074.37
2023-05-14T07:18:53.006Z,1203.75
2023-05-14T07:19:52.894Z,1074.37
2023-05-14T07:20:52.892Z,990.00
2023-05-14T07:21:52.861Z,967.50
2023-05-14T07:22:52.855Z,978.75
2023-05-14T07:23:52.836Z,961.87
2023-05-14T07:24:52.822Z,945.00
2023-05-14T07:25:52.804Z,950.62
2023-05-14T07:26:52.800Z,973.12
2023-05-14T07:27:52.824Z,1001.25
2023-05-14T07:28:52.784Z,1046.25
2023-05-14T07:29:52.758Z,1389.37
2023-05-14T07:30:52.793Z,1119.37
2023-05-14T07:31:52.769Z,1203.75
2023-05-14T07:32:52.764Z,1305.00
2023-05-14T07:33:52.702Z,1119.37
2023-05-14T07:34:52.692Z,1046.25
2023-05-14T07:35:52.680Z,1023.75
2023-05-14T07:36:52.672Z,1006.87
2023-05-14T07:37:52.652Z,1029.37
2023-05-14T07:38:52.636Z,1012.50
2023-05-14T07:39:52.642Z,1035.00
2023-05-14T07:40:52.617Z,1451.25
2023-05-14T07:41:52.604Z,1310.62
2023-05-14T07:42:52.589Z,1130.62
2023-05-14T07:43:52.729Z,1158.75
2023-05-14T07:44:52.563Z,1198.12
2023-05-14T07:45:52.550Z,1215.00
2023-05-14T07:46:52.553Z,1170.00
2023-05-14T07:47:52.767Z,1996.87
2023-05-14T07:48:52.512Z,1653.75
2023-05-14T07:49:52.502Z,1321.87
2023-05-14T07:50:52.486Z,1310.62
2023-05-14T07:51:52.471Z,1575.00
2023-05-14T07:52:52.459Z,1513.12
2023-05-14T07:53:52.443Z,1698.75
2023-05-14T07:54:52.486Z,1676.25
2023-05-14T07:55:52.446Z,1704.37
2023-05-14T07:56:52.412Z,1940.62
2023-05-14T07:57:52.390Z,2733.75
2023-05-14T07:58:52.382Z,3195.00
2023-05-14T07:59:52.386Z,3234.37
2023-05-14T08:00:52.361Z,2660.62
2023-05-14T08:01:52.465Z,2913.75
2023-05-14T08:02:52.662Z,2182.50
2023-05-14T08:03:52.473Z,2435.62
2023-05-14T08:04:52.393Z,1856.25
2023-05-14T08:05:52.329Z,1620.00
2023-05-14T08:06:52.293Z,1867.50
2023-05-14T08:07:52.267Z,2002.50
2023-05-14T08:08:52.256Z,2649.37
2023-05-14T08:09:52.253Z,2328.75
2023-05-14T08:10:52.270Z,3296.25
2023-05-14T08:11:52.217Z,3206.25
2023-05-14T08:12:52.222Z,3099.37
2023-05-14T08:13:52.200Z,3065.62
2023-05-14T08:14:52.187Z,2863.12
2023-05-14T08:15:52.194Z,2756.25
2023-05-14T08:16:52.198Z,3166.87
2023-05-14T08:17:52.179Z,3093.75
2023-05-14T08:18:52.178Z,3223.12
2023-05-14T08:19:52.121Z,2868.75
2023-05-14T08:20:52.120Z,3060.00
2023-05-14T08:21:52.094Z,3217.50
2023-05-14T08:22:52.089Z,2958.75
2023-05-14T08:23:52.082Z,2970.00
2023-05-14T08:24:52.066Z,2435.62
2023-05-14T08:25:52.059Z,3009.37
2023-05-14T08:26:52.044Z,2823.75
2023-05-14T08:27:52.023Z,2880.00
2023-05-14T08:28:52.014Z,2806.87
2023-05-14T08:29:52.004Z,2688.75
2023-05-14T08:30:52.021Z,2610.00
2023-05-14T08:31:52.012Z,2486.25
2023-05-14T08:32:51.991Z,2503.12
2023-05-14T08:33:51.954Z,2570.62
2023-05-14T08:34:52.132Z,2660.62
2023-05-14T08:35:51.929Z,2778.75
2023-05-14T08:36:51.918Z,2902.50
2023-05-14T08:37:51.904Z,3060.00
2023-05-14T08:38:51.895Z,3189.37
2023-05-14T08:39:51.888Z,3279.37
2023-05-14T08:40:51.869Z,3341.25
2023-05-14T08:41:51.861Z,3341.25
2023-05-14T08:42:51.873Z,3318.75
2023-05-14T08:43:51.830Z,3223.12
2023-05-14T08:44:51.822Z,3121.87
2023-05-14T08:45:51.803Z,3060.00
2023-05-14T08:46:51.794Z,3031.87
2023-05-14T08:47:51.910Z,2992.50
2023-05-14T08:48:51.777Z,2970.00
2023-05-14T08:49:51.756Z,2941.87
2023-05-14T08:50:51.760Z,2925.00
2023-05-14T08:51:51.728Z,2896.87
2023-05-14T08:52:51.725Z,2818.12
2023-05-14T08:53:51.703Z,2784.37
2023-05-14T08:54:51.692Z,2891.25
2023-05-14T08:55:51.677Z,3217.50
2023-05-14T08:56:51.985Z,3465.00
2023-05-14T08:57:51.657Z,3453.75
2023-05-14T08:58:51.641Z,3268.12
2023-05-14T08:59:51.628Z,3138.75
2023-05-14T09:00:51.614Z,3189.37
2023-05-14T09:01:51.694Z,3313.12
2023-05-14T09:02:51.806Z,3386.25
2023-05-14T09:03:51.616Z,3403.12
2023-05-14T09:04:51.573Z,3375.00
2023-05-14T09:05:51.553Z,3307.50
2023-05-14T09:06:51.542Z,3273.75
2023-05-14T09:07:51.547Z,3285.00
2023-05-14T09:08:51.518Z,3313.12
2023-05-14T09:09:51.505Z,3105.00
2023-05-14T09:10:51.517Z,3262.50
2023-05-14T09:11:51.488Z,3217.50
2023-05-14T09:12:51.470Z,3200.62
2023-05-14T09:13:51.457Z,3155.62
2023-05-14T09:14:51.449Z,3105.00
2023-05-14T09:15:51.502Z,3099.37
2023-05-14T09:16:51.528Z,3037.50
2023-05-14T09:17:51.509Z,3060.00
2023-05-14T09:18:51.445Z,3088.12
2023-05-14T09:19:51.469Z,3015.00
2023-05-14T09:20:51.379Z,2998.12
2023-05-14T09:21:51.369Z,3037.50
2023-05-14T09:22:51.349Z,3217.50
2023-05-14T09:23:51.336Z,3279.37
2023-05-14T09:24:51.325Z,3330.00
2023-05-14T09:25:51.312Z,3335.62
2023-05-14T09:26:51.299Z,3335.62
2023-05-14T09:27:51.300Z,3268.12
2023-05-14T09:28:51.276Z,3127.50
2023-05-14T09:29:51.261Z,3189.37
2023-05-14T09:30:51.263Z,3110.62
2023-05-14T09:31:51.264Z,3110.62
2023-05-14T09:32:51.246Z,3138.75
2023-05-14T09:33:51.217Z,3285.00
2023-05-14T09:34:51.203Z,2626.87
2023-05-14T09:35:51.215Z,3071.25
2023-05-14T09:36:51.182Z,3071.25
2023-05-14T09:37:51.182Z,2975.62
2023-05-14T09:38:51.164Z,2846.25
2023-05-14T09:39:51.162Z,2958.75
2023-05-14T09:40:51.130Z,2773.12
2023-05-14T09:41:51.118Z,3183.75
2023-05-14T09:42:51.112Z,2863.12
2023-05-14T09:43:51.106Z,3251.25
2023-05-14T09:44:51.083Z,3594.37
2023-05-14T09:45:51.080Z,3611.25
2023-05-14T09:46:51.104Z,3594.37
2023-05-14T09:47:51.212Z,3650.62
2023-05-14T09:48:51.038Z,2199.37
2023-05-14T09:49:51.021Z,3318.75
2023-05-14T09:50:51.010Z,3178.12
2023-05-14T09:51:51.047Z,2998.12
2023-05-14T09:52:50.988Z,2868.75
2023-05-14T09:53:50.976Z,2812.50
2023-05-14T09:54:50.963Z,2874.37
2023-05-14T09:55:50.948Z,2863.12
2023-05-14T09:56:50.967Z,2829.37
2023-05-14T09:57:50.928Z,3166.87
2023-05-14T09:58:50.912Z,3211.87
2023-05-14T09:59:50.905Z,1462.50
2023-05-14T10:00:50.955Z,1501.87
2023-05-14T10:01:50.883Z,2565.00
2023-05-14T10:02:50.869Z,3825.00
2023-05-14T10:03:50.856Z,3808.12
2023-05-14T10:04:50.957Z,3138.75
2023-05-14T10:05:50.830Z,3937.50
2023-05-14T10:06:50.818Z,2041.87
2023-05-14T10:07:50.838Z,2508.75
2023-05-14T10:08:50.790Z,3082.50
2023-05-14T10:10:50.768Z,3605.62
2023-05-14T10:11:50.758Z,3690.00
2023-05-14T10:12:50.749Z,2176.87
2023-05-14T10:13:50.736Z,3684.37
2023-05-14T10:14:50.719Z,2683.12
2023-05-14T10:15:50.713Z,1608.75
2023-05-14T10:16:50.899Z,2728.12
2023-05-14T10:17:50.717Z,1597.50
2023-05-14T10:18:50.753Z,1771.87
2023-05-14T10:19:50.664Z,1282.50
2023-05-14T10:20:50.653Z,1327.50
2023-05-14T10:21:50.636Z,1591.87
2023-05-14T10:22:50.626Z,1451.25
2023-05-14T10:23:50.631Z,1968.75
2023-05-14T10:24:50.597Z,3920.62
2023-05-14T10:25:50.590Z,1873.12
2023-05-14T10:26:50.573Z,3886.87
2023-05-14T10:27:50.571Z,2131.87
2023-05-14T10:28:50.555Z,1929.37
2023-05-14T10:29:50.540Z,1884.37
2023-05-14T10:30:50.571Z,2081.25
2023-05-14T10:31:50.536Z,3616.87
2023-05-14T10:32:50.569Z,3251.25
2023-05-14T10:33:50.560Z,2497.50
2023-05-14T10:34:50.473Z,2255.62
2023-05-14T10:35:50.461Z,2964.37
2023-05-14T10:36:50.448Z,2778.75
2023-05-14T10:37:50.438Z,2475.00
2023-05-14T10:38:50.423Z,2565.00
2023-05-14T10:39:50.435Z,2486.25
2023-05-14T10:40:53.568Z,2553.75
2023-05-14T10:41:50.386Z,1794.37
2023-05-14T10:42:50.376Z,1417.50
2023-05-14T10:43:50.364Z,1366.87
2023-05-14T10:44:50.348Z,1333.12
2023-05-14T10:45:50.340Z,1293.75
2023-05-14T10:46:50.349Z,1305.00
2023-05-14T10:47:50.335Z,1485.00
2023-05-14T10:48:50.313Z,1265.62
2023-05-14T10:49:50.289Z,1243.12
2023-05-14T10:50:50.326Z,1732.50
2023-05-14T10:51:50.278Z,1636.87
2023-05-14T10:52:50.249Z,1665.00
2023-05-14T10:53:50.237Z,3701.25
2023-05-14T10:54:50.225Z,3729.37
2023-05-14T10:55:50.242Z,3735.00
2023-05-14T10:56:50.212Z,3785.62
2023-05-14T10:57:50.191Z,1507.50
2023-05-14T10:58:50.190Z,3915.00
2023-05-14T10:59:50.168Z,2542.50
2023-05-14T11:00:50.152Z,2368.12
2023-05-14T11:01:50.167Z,3763.12
2023-05-14T11:02:50.174Z,3830.62
2023-05-14T11:03:50.180Z,1541.25
2023-05-14T11:04:50.107Z,1406.25
2023-05-14T11:05:50.097Z,1333.12
2023-05-14T11:06:50.081Z,1299.37
2023-05-14T11:07:50.097Z,1170.00
2023-05-14T11:08:50.066Z,1057.50
2023-05-14T11:09:50.046Z,978.75
2023-05-14T11:10:50.034Z,916.87
2023-05-14T11:11:50.049Z,866.25
2023-05-14T11:12:50.009Z,832.50
2023-05-14T11:13:50.002Z,821.25
2023-05-14T11:14:49.981Z,815.62
2023-05-14T11:15:49.971Z,821.25
2023-05-14T11:16:50.038Z,810.00
2023-05-14T11:17:49.973Z,810.00
2023-05-14T11:18:49.966Z,804.37
2023-05-14T11:19:51.230Z,798.75
2023-05-14T11:20:49.906Z,793.12
2023-05-14T11:21:49.918Z,776.25
2023-05-14T11:22:49.883Z,753.75
2023-05-14T11:23:49.871Z,731.25
2023-05-14T11:24:49.864Z,720.00
2023-05-14T11:25:49.886Z,731.25
2023-05-14T11:26:49.834Z,748.12
2023-05-14T11:27:49.855Z,781.87
2023-05-14T11:28:49.806Z,855.00
2023-05-14T11:29:49.798Z,984.37
2023-05-14T11:30:49.785Z,1130.62
2023-05-14T11:31:49.843Z,2992.50
2023-05-14T11:32:49.775Z,3166.87
2023-05-14T11:33:49.747Z,3082.50
2023-05-14T11:34:49.735Z,2385.00
2023-05-14T11:35:49.731Z,2745.00
2023-05-14T11:36:49.711Z,3240.00
2023-05-14T11:37:49.704Z,3318.75
2023-05-14T11:38:49.694Z,3425.62
2023-05-14T11:39:49.682Z,3504.37
2023-05-14T11:40:49.664Z,3521.25
2023-05-14T11:41:49.647Z,3436.87
2023-05-14T11:42:49.633Z,3341.25
2023-05-14T11:43:49.653Z,3015.00
2023-05-14T11:44:49.615Z,3470.62
2023-05-14T11:45:49.620Z,3217.50
2023-05-14T11:46:49.582Z,2986.87
2023-05-14T11:47:49.639Z,3330.00
2023-05-14T11:48:49.584Z,3397.50
2023-05-14T11:49:49.564Z,3408.75
2023-05-14T11:50:49.538Z,3420.00
2023-05-14T11:51:49.544Z,3532.50
2023-05-14T11:52:49.515Z,3386.25
2023-05-14T11:53:49.526Z,3358.12
2023-05-14T11:54:49.498Z,2413.12
2023-05-14T11:55:49.478Z,3330.00
2023-05-14T11:56:49.464Z,3301.87
2023-05-14T11:57:49.453Z,3307.50
2023-05-14T11:58:49.449Z,3296.25
2023-05-14T11:59:49.452Z,3285.00
2023-05-14T12:00:49.416Z,3296.25
2023-05-14T12:01:50.751Z,3408.75
2023-05-14T12:02:49.492Z,3504.37
2023-05-14T12:03:49.485Z,3403.12
2023-05-14T12:04:49.450Z,2790.00
2023-05-14T12:05:49.355Z,3262.50
2023-05-14T12:06:49.342Z,3211.87
2023-05-14T12:07:49.330Z,2109.37
2023-05-14T12:08:49.322Z,1710.00
2023-05-14T12:09:49.422Z,1051.87
2023-05-14T12:10:49.296Z,1001.25
2023-05-14T12:11:49.282Z,967.50
2023-05-14T12:12:49.271Z,961.87
2023-05-14T12:13:49.261Z,2992.50
2023-05-14T12:14:49.251Z,3105.00
2023-05-14T12:15:49.315Z,3099.37
2023-05-14T12:16:49.223Z,3065.62
2023-05-14T12:17:49.234Z,3026.25
2023-05-14T12:18:49.241Z,2868.75
2023-05-14T12:19:49.202Z,2936.25
2023-05-14T12:20:49.179Z,3105.00
2023-05-14T12:21:49.163Z,3127.50
2023-05-14T12:22:49.158Z,3217.50
2023-05-14T12:23:49.137Z,3234.37
2023-05-14T12:24:49.126Z,1141.87
2023-05-14T12:25:49.111Z,3127.50
2023-05-14T12:26:49.103Z,3116.25
2023-05-14T12:27:49.092Z,3048.75
2023-05-14T12:28:49.109Z,3009.37
2023-05-14T12:29:49.067Z,2998.12
2023-05-14T12:30:49.055Z,2975.62
2023-05-14T12:31:49.186Z,2902.50
2023-05-14T12:32:49.204Z,2970.00
2023-05-14T12:33:49.018Z,2975.62
2023-05-14T12:34:49.008Z,2998.12
2023-05-14T12:35:48.995Z,2941.87
2023-05-14T12:36:48.983Z,2840.62
2023-05-14T12:37:48.972Z,2925.00